Terminal Aerodrome Forecast
Issued by NWS Burlington, VT

Current Version | Previous Version | Text Only | Print | Product List | Glossary On
Versions: 1 2 3 4 5 6 7 8 9 10 11 12 13 14 15
745
FTUS41 KBTV 271731
TAFBTV
TAF
KBTV 271731Z 2718/2818 19011KT P6SM VCSH SCT060 SCT080
     FM280300 19005KT P6SM SCT200
     FM280800 00000KT P6SM SCT130
     FM281400 VRB05KT P6SM SCT080 BKN200=

USA.gov is the U.S. government's official web portal to all federal, state and local government web resources and services.